< < Back
Terminal Aerodrome Forecast


Current Version              Previous Versions:   1  2  3  4  5  6  7  8  9  

Terminal Aerodrome Forecast

376
FTUS42 KGSP 191700
TAFHKY
TAF
KHKY 191736Z 1918/2018 30006KT P6SM SKC
     FM200100 VRB03KT P6SM FEW250
     FM201600 21006KT P6SM FEW100=



Latest METAR

012
SAUS70 KWBC 200300 RRF
MTRHKY
METAR KHKY 200253Z AUTO 00000KT 10SM CLR 09/08 A3013 RMK AO2 SLP189
T00940083 51012


USA.gov is the U.S. government's official web portal to all federal, state and local government web resources and services.